Search for airport 
image banner adimage banner adimage banner ad
image banner ad

M45 - Alpine County

Located in Markleeville, United States

ICAO - M45, IATA -

Data provided by Airmate  

General information

Coordinates: N38°44'5" W119°46'1"
Elevation is 5872 feet MSL.
Magnetic variation is 16° East
View others Airports in California

Operational data

Special qualification required
Current time UTC:
Current local time:
Weather at : KTVL - Lake Tahoe ( 27 km )
METAR: KTVL 240853Z AUTO 17005KT 10SM SCT120 10/04 A3021 RMK AO2 SLP173 T01000044 51006
TAF: KTVL 240520Z 2406/2506 VRB03KT P6SM SCT110 FM241900 04005KT P6SM VCTS SCT060CB BKN090 FM250300 00000KT P6SM SCT080 BKN250
View NOTAMs / SUP AIP / TFR affecting this airport [VIEW]
Communications frequencies: [VIEW]

Runways:

RWY identifierQFULength (ft)Width (ft)SurfaceLDA (ft)
17184°444350ASPH
35444350ASPH

Airport contact information

Address: Markleeville United States

Satellite view of M45